Time;durP1;ratioP1;P1;durP2;ratioP2;P2;SDS_P1;SDS_P2;PMS_P1;PMS_P2;Temp;Humidity;BMP_temperature;BMP_pressure;BME280_temperature;BME280_humidity;BME280_pressure;Samples;Min_cycle;Max_cycle;Signal;HPM_P1;HPM_P2
2022/08/18 00:01:13;;;;;;;9.02;5.43;;;;;;;;;;4824427;29;20086;-46
2022/08/18 00:03:44;;;;;;;40.45;26.40;;;;;;;;;;4824009;29;20056;-45
2022/08/18 00:06:25;;;;;;;7.45;5.53;;;;;;;;;;4824310;29;20061;-45
2022/08/18 00:08:55;;;;;;;6.18;5.45;;;;;;;;;;4824063;29;20411;-44
2022/08/18 00:11:23;;;;;;;5.90;5.30;;;;;;;;;;4824256;29;20086;-48
2022/08/18 00:13:50;;;;;;;8.57;5.55;;;;;;;;;;4823859;29;20133;-52
2022/08/18 00:16:17;;;;;;;5.63;4.00;;;;;;;;;;4824200;29;20096;-44
2022/08/18 00:18:46;;;;;;;13.07;5.38;;;;;;;;;;4822864;29;20124;-47
2022/08/18 00:21:14;;;;;;;13.10;6.00;;;;;;;;;;4842281;29;20042;-45
2022/08/18 00:23:41;;;;;;;8.65;5.97;;;;;;;;;;4841806;29;20117;-46
2022/08/18 00:26:09;;;;;;;8.73;6.07;;;;;;;;;;4842398;29;20050;-48
2022/08/18 00:28:36;;;;;;;8.68;5.70;;;;;;;;;;4842469;29;20080;-44
2022/08/18 00:31:04;;;;;;;8.88;6.00;;;;;;;;;;4842161;29;20136;-46
2022/08/18 00:33:31;;;;;;;10.40;6.03;;;;;;;;;;4841603;29;20542;-45
2022/08/18 00:35:59;;;;;;;8.40;5.55;;;;;;;;;;4842095;29;20522;-44
2022/08/18 00:38:26;;;;;;;7.53;6.25;;;;;;;;;;4841959;29;20128;-43
2022/08/18 00:40:55;;;;;;;11.10;7.07;;;;;;;;;;4836617;29;20133;-46
2022/08/18 00:43:41;;;;;;;9.43;6.65;;;;;;;;;;4824054;29;20499;-44
2022/08/18 00:46:14;;;;;;;6.88;6.15;;;;;;;;;;4823630;29;20498;-52
2022/08/18 00:48:41;;;;;;;;;;;;;;;;;;4824264;29;20117;-44
2022/08/18 00:51:22;;;;;;;8.90;6.20;;;;;;;;;;4823495;29;19928;-52
2022/08/18 00:53:57;;;;;;;9.57;6.70;;;;;;;;;;4823641;29;20038;-50
2022/08/18 00:56:33;;;;;;;6.97;5.93;;;;;;;;;;4823548;29;20133;-45
2022/08/18 00:59:06;;;;;;;9.70;6.57;;;;;;;;;;4823519;29;20054;-44
2022/08/18 01:01:34;;;;;;;8.60;6.97;;;;;;;;;;4823790;29;20061;-47
2022/08/18 01:04:17;;;;;;;9.95;7.25;;;;;;;;;;4823471;29;20046;-43
2022/08/18 01:06:53;;;;;;;9.35;6.65;;;;;;;;;;4823395;29;20129;-45
2022/08/18 01:09:21;;;;;;;7.13;6.43;;;;;;;;;;4823366;29;20050;-47
2022/08/18 01:11:50;;;;;;;10.38;6.57;;;;;;;;;;4823161;29;20075;-45
2022/08/18 01:14:19;;;;;;;9.30;7.35;;;;;;;;;;4823289;29;20042;-44
2022/08/18 01:22:48;;;;;;;9.88;6.20;;;;;;;;;;4823318;29;20153;-51
2022/08/18 01:28:05;;;;;;;10.27;8.05;;;;;;;;;;4823023;29;20104;-44
2022/08/18 01:30:47;;;;;;;8.10;6.63;;;;;;;;;;4823098;29;20053;-46
2022/08/18 01:33:17;;;;;;;8.10;5.90;;;;;;;;;;4823045;29;20051;-45
2022/08/18 01:35:48;;;;;;;11.48;8.68;;;;;;;;;;4822627;29;20070;-47
2022/08/18 01:38:19;;;;;;;39.08;33.10;;;;;;;;;;4823212;29;20539;-51
2022/08/18 01:40:46;;;;;;;24.70;21.58;;;;;;;;;;4822943;29;20039;-44
2022/08/18 01:43:37;;;;;;;12.10;10.90;;;;;;;;;;4822604;29;20042;-44
2022/08/18 01:46:05;;;;;;;13.68;10.32;;;;;;;;;;4822852;29;20050;-49
2022/08/18 01:48:36;;;;;;;10.70;7.72;;;;;;;;;;4822871;29;20523;-47
2022/08/18 01:51:06;;;;;;;10.02;7.05;;;;;;;;;;4823064;29;20047;-44
2022/08/18 01:53:35;;;;;;;8.05;7.25;;;;;;;;;;4822843;29;20058;-48
2022/08/18 01:56:05;;;;;;;12.15;8.80;;;;;;;;;;4823035;29;20102;-47
2022/08/18 01:58:33;;;;;;;8.05;7.30;;;;;;;;;;4822894;29;20419;-44
2022/08/18 02:01:02;;;;;;;6.13;5.40;;;;;;;;;;4822743;29;20105;-51
2022/08/18 02:03:35;;;;;;;8.02;6.55;;;;;;;;;;4822655;29;20137;-45
2022/08/18 02:06:08;;;;;;;8.25;7.15;;;;;;;;;;4823074;29;20046;-47
2022/08/18 02:08:41;;;;;;;7.65;5.63;;;;;;;;;;4822871;29;20042;-46
2022/08/18 02:11:12;;;;;;;6.90;6.20;;;;;;;;;;4822504;29;20074;-48
2022/08/18 02:13:41;;;;;;;7.85;6.53;;;;;;;;;;4822822;29;20046;-44
2022/08/18 02:16:08;;;;;;;9.55;6.35;;;;;;;;;;4822695;29;20129;-44
2022/08/18 02:18:37;;;;;;;95.30;57.58;;;;;;;;;;4822801;29;20137;-47
2022/08/18 02:21:17;;;;;;;15.95;12.30;;;;;;;;;;4804449;29;20059;-44
2022/08/18 02:23:46;;;;;;;11.15;7.80;;;;;;;;;;4803876;29;20055;-45
2022/08/18 02:26:20;;;;;;;9.38;7.95;;;;;;;;;;4804684;29;20442;-45
2022/08/18 02:28:47;;;;;;;14.13;8.77;;;;;;;;;;4808356;29;20056;-44
2022/08/18 02:31:19;;;;;;;12.02;8.57;;;;;;;;;;4822517;29;20145;-44
2022/08/18 02:33:47;;;;;;;10.63;8.63;;;;;;;;;;4822337;29;20046;-45
2022/08/18 02:36:19;;;;;;;9.55;7.70;;;;;;;;;;4822483;29;20050;-47
2022/08/18 02:38:46;;;;;;;56.20;36.67;;;;;;;;;;4824631;29;20087;-43
2022/08/18 02:41:27;;;;;;;32.20;21.33;;;;;;;;;;4825557;29;20415;-44
2022/08/18 02:43:57;;;;;;;16.10;10.60;;;;;;;;;;4825337;29;20410;-46
2022/08/18 02:46:25;;;;;;;11.45;8.23;;;;;;;;;;4825667;29;20056;-44
2022/08/18 02:48:59;;;;;;;9.20;7.22;;;;;;;;;;4825487;29;20125;-50
2022/08/18 02:51:26;;;;;;;9.95;7.57;;;;;;;;;;4825631;29;20054;-45
2022/08/18 02:53:57;;;;;;;8.35;6.43;;;;;;;;;;4825503;29;20050;-44
2022/08/18 02:56:30;;;;;;;9.95;7.80;;;;;;;;;;4825647;29;20098;-44
2022/08/18 02:59:10;;;;;;;6.65;5.95;;;;;;;;;;4825430;29;20046;-43
2022/08/18 03:01:39;;;;;;;179.60;105.63;;;;;;;;;;4825533;29;20049;-46
2022/08/18 03:04:09;;;;;;;17.63;13.65;;;;;;;;;;4825183;29;20073;-44
2022/08/18 03:06:38;;;;;;;11.65;10.07;;;;;;;;;;4809163;29;20049;-46
2022/08/18 03:09:08;;;;;;;9.35;7.13;;;;;;;;;;4824222;29;20043;-48
2022/08/18 03:11:36;;;;;;;7.53;6.68;;;;;;;;;;4824925;29;20453;-45
2022/08/18 03:14:04;;;;;;;11.07;9.05;;;;;;;;;;4825195;29;20043;-43
2022/08/18 03:16:41;;;;;;;8.07;7.28;;;;;;;;;;4825218;29;20393;-45
2022/08/18 03:19:21;;;;;;;;;;;;;;;;;;4830003;29;20042;-44
2022/08/18 03:21:48;;;;;;;;;;;;;;;;;;4843885;29;19931;-46
2022/08/18 03:24:17;;;;;;;;;;;;;;;;;;4843298;29;19924;-44
2022/08/18 03:26:47;;;;;;;;;;;;;;;;;;4829594;29;20386;-44
2022/08/18 03:29:15;;;;;;;;;;;;;;;;;;4825310;29;20293;-42
2022/08/18 03:31:44;;;;;;;;;;;;;;;;;;4825145;29;19935;-44
2022/08/18 03:34:11;;;;;;;;;;;;;;;;;;4824656;29;19932;-45
2022/08/18 03:36:40;;;;;;;;;;;;;;;;;;4824695;29;19973;-43
2022/08/18 03:39:08;;;;;;;;;;;;;;;;;;4825362;29;20385;-45
2022/08/18 03:41:36;;;;;;;;;;;;;;;;;;4825400;29;20305;-45
2022/08/18 03:44:10;;;;;;;;;;;;;;;;;;4824840;29;19924;-45
2022/08/18 03:46:39;;;;;;;;;;;;;;;;;;4825363;29;19940;-44
2022/08/18 03:49:06;;;;;;;;;;;;;;;;;;4824333;29;19925;-44
2022/08/18 03:51:33;;;;;;;;;;;;;;;;;;4825010;29;19928;-46
2022/08/18 03:54:01;;;;;;;;;;;;;;;;;;4823875;29;19924;-46
2022/08/18 03:56:33;;;;;;;;;;;;;;;;;;4823802;29;19981;-45
2022/08/18 03:59:03;;;;;;;;;;;;;;;;;;4823817;29;20301;-44
2022/08/18 04:01:33;;;;;;;;;;;;;;;;;;4824534;29;19954;-45
2022/08/18 04:04:02;;;;;;;;;;;;;;;;;;4824802;29;20016;-44
2022/08/18 04:06:31;;;;;;;;;;;;;;;;;;4824653;29;20318;-45
2022/08/18 04:09:03;;;;;;;;;;;;;;;;;;4824851;29;19925;-50
2022/08/18 04:11:32;;;;;;;;;;;;;;;;;;4824388;29;19970;-44
2022/08/18 04:14:02;;;;;;;;;;;;;;;;;;4824715;29;19974;-48
2022/08/18 04:16:33;;;;;;;;;;;;;;;;;;4824498;29;19984;-52
2022/08/18 04:19:03;;;;;;;;;;;;;;;;;;4826636;29;19958;-45
2022/08/18 04:21:32;;;;;;;;;;;;;;;;;;4842547;29;19929;-44
2022/08/18 04:24:03;;;;;;;;;;;;;;;;;;4842596;29;20304;-44
2022/08/18 04:26:34;;;;;;;;;;;;;;;;;;4842806;29;19951;-42
2022/08/18 04:29:01;;;;;;;;;;;;;;;;;;4842259;29;19977;-45
2022/08/18 04:31:28;;;;;;;;;;;;;;;;;;4842516;29;20763;-44
2022/08/18 04:33:57;;;;;;;;;;;;;;;;;;4842446;29;19928;-43
2022/08/18 04:36:24;;;;;;;;;;;;;;;;;;4842833;29;19931;-45
2022/08/18 04:38:51;;;;;;;;;;;;;;;;;;4842610;29;19925;-47
2022/08/18 04:41:22;;;;;;;;;;;;;;;;;;4842151;29;20346;-45
2022/08/18 04:43:50;;;;;;;;;;;;;;;;;;4842614;29;19924;-46
2022/08/18 04:46:17;;;;;;;;;;;;;;;;;;4842174;29;19928;-46
2022/08/18 04:48:44;;;;;;;;;;;;;;;;;;4842491;29;20003;-47
2022/08/18 04:51:16;;;;;;;;;;;;;;;;;;4842331;29;19924;-48
2022/08/18 04:54:03;;;;;;;;;;;;;;;;;;4842512;29;19928;-46
2022/08/18 04:56:35;;;;;;;;;;;;;;;;;;4842101;29;19931;-44
2022/08/18 04:59:05;;;;;;;;;;;;;;;;;;4842231;29;19960;-43
2022/08/18 05:01:40;;;;;;;;;;;;;;;;;;4842020;29;19931;-44
2022/08/18 05:04:07;;;;;;;;;;;;;;;;;;4842109;29;20346;-46
2022/08/18 05:06:35;;;;;;;;;;;;;;;;;;4842354;29;20385;-46
2022/08/18 05:09:03;;;;;;;;;;;;;;;;;;4842078;29;20271;-45
2022/08/18 05:11:34;;;;;;;;;;;;;;;;;;4842134;29;20456;-45
2022/08/18 05:14:03;;;;;;;;;;;;;;;;;;4841908;29;19930;-46
2022/08/18 05:16:35;;;;;;;;;;;;;;;;;;4841865;29;19932;-43
2022/08/18 05:19:13;;;;;;;;;;;;;;;;;;4838122;29;20386;-44
2022/08/18 05:21:41;;;;;;;;;;;;;;;;;;4823719;29;19959;-44
2022/08/18 05:24:08;;;;;;;;;;;;;;;;;;4823824;29;19925;-43
2022/08/18 05:26:36;;;;;;;;;;;;;;;;;;4823795;29;19925;-45
2022/08/18 05:29:03;;;;;;;;;;;;;;;;;;4823568;29;19928;-44
2022/08/18 05:31:45;;;;;;;;;;;;;;;;;;4822288;29;20381;-47
2022/08/18 05:34:12;;;;;;;;;;;;;;;;;;4823666;29;19973;-45
2022/08/18 05:36:45;;;;;;;;;;;;;;;;;;4823796;29;19929;-44
2022/08/18 05:39:18;;;;;;;;;;;;;;;;;;4823246;29;20289;-45
2022/08/18 05:42:01;;;;;;;;;;;;;;;;;;4823282;29;19931;-48
2022/08/18 05:44:30;;;;;;;;;;;;;;;;;;4823497;29;19929;-47
2022/08/18 05:46:59;;;;;;;;;;;;;;;;;;4823669;29;19935;-48
2022/08/18 05:49:26;;;;;;;;;;;;;;;;;;4822232;29;19975;-44
2022/08/18 05:52:11;;;;;;;;;;;;;;;;;;4823113;29;19928;-45
2022/08/18 05:57:31;;;;;;;;;;;;;;;;;;4823344;29;19925;-45
2022/08/18 05:59:59;;;;;;;;;;;;;;;;;;4823557;29;19925;-45
2022/08/18 06:02:26;;;;;;;;;;;;;;;;;;4823399;29;19932;-45
2022/08/18 06:04:54;;;;;;;;;;;;;;;;;;4823195;29;20004;-49
2022/08/18 06:07:28;;;;;;;;;;;;;;;;;;4823317;29;19933;-48
2022/08/18 06:09:59;;;;;;;;;;;;;;;;;;4823340;29;20023;-64
2022/08/18 06:12:46;;;;;;;;;;;;;;;;;;4823785;29;20373;-45
2022/08/18 06:15:13;;;;;;;;;;;;;;;;;;4826531;29;20355;-44
2022/08/18 06:18:04;;;;;;;;;;;;;;;;;;4826348;29;19924;-45
2022/08/18 06:20:50;;;;;;;;;;;;;;;;;;4835186;29;19932;-44
2022/08/18 06:23:20;;;;;;;;;;;;;;;;;;4844316;29;19928;-47
2022/08/18 06:25:50;;;;;;;;;;;;;;;;;;4844789;29;20433;-44
2022/08/18 06:28:17;;;;;;;;;;;;;;;;;;4844734;29;19928;-44
2022/08/18 06:30:48;;;;;;;;;;;;;;;;;;4844626;29;19929;-45
2022/08/18 06:33:21;;;;;;;;;;;;;;;;;;4844699;29;19981;-43
2022/08/18 06:35:59;;;;;;;;;;;;;;;;;;4844550;29;19979;-48
2022/08/18 06:38:52;;;;;;;;;;;;;;;;;;4845357;29;19946;-46
2022/08/18 06:41:21;;;;;;;;;;;;;;;;;;4823473;29;19960;-47
2022/08/18 06:44:11;;;;;;;;;;;;;;;;;;4844442;29;19936;-47
2022/08/18 06:46:55;;;;;;;;;;;;;;;;;;4844871;29;19930;-47
2022/08/18 06:49:30;;;;;;;;;;;;;;;;;;4844407;29;20015;-46
2022/08/18 06:51:57;;;;;;;;;;;;;;;;;;4844397;29;19928;-44
2022/08/18 06:54:26;;;;;;;;;;;;;;;;;;4844147;29;19924;-49
2022/08/18 06:56:56;;;;;;;;;;;;;;;;;;4844256;29;19924;-49
2022/08/18 06:59:31;;;;;;;;;;;;;;;;;;4825644;29;19989;-53
2022/08/18 07:02:01;;;;;;;;;;;;;;;;;;4807912;29;19925;-44
2022/08/18 07:04:29;;;;;;;;;;;;;;;;;;4794297;29;20378;-46
2022/08/18 07:06:57;;;;;;;;;;;;;;;;;;4789453;29;19929;-46
2022/08/18 07:09:26;;;;;;;;;;;;;;;;;;4789278;29;20412;-45
2022/08/18 07:11:57;;;;;;;;;;;;;;;;;;4789827;29;20028;-47
2022/08/18 07:14:25;;;;;;;;;;;;;;;;;;4789604;29;19960;-46
2022/08/18 07:17:06;;;;;;;;;;;;;;;;;;4789441;29;20378;-46
2022/08/18 07:19:33;;;;;;;;;;;;;;;;;;4795218;29;19929;-48
2022/08/18 07:22:03;;;;;;;;;;;;;;;;;;4807289;29;20400;-44
2022/08/18 07:24:37;;;;;;;;;;;;;;;;;;4806265;29;19981;-44
2022/08/18 07:27:07;;;;;;;;;;;;;;;;;;4807670;29;19925;-43
2022/08/18 07:29:36;;;;;;;;;;;;;;;;;;4807400;29;19933;-52
2022/08/18 07:32:06;;;;;;;;;;;;;;;;;;4807292;29;19932;-44
2022/08/18 07:34:39;;;;;;;;;;;;;;;;;;4807542;29;19956;-47
2022/08/18 07:37:11;;;;;;;;;;;;;;;;;;4807526;29;19959;-46
2022/08/18 07:39:49;;;;;;;;;;;;;;;;;;4807318;29;20454;-49
2022/08/18 07:42:27;;;;;;;;;;;;;;;;;;4805245;29;19929;-48
2022/08/18 07:45:18;;;;;;;;;;;;;;;;;;4806983;29;20533;-46
2022/08/18 07:48:06;;;;;;;;;;;;;;;;;;4806997;29;20344;-45
2022/08/18 07:50:59;;;;;;;;;;;;;;;;;;4807137;29;19926;-44
2022/08/18 07:53:36;;;;;;;;;;;;;;;;;;4806809;29;19935;-50
2022/08/18 07:56:23;;;;;;;;;;;;;;;;;;4807027;29;19925;-47
2022/08/18 07:58:54;;;;;;;;;;;;;;;;;;4807126;29;19974;-45
2022/08/18 08:01:21;;;;;;;;;;;;;;;;;;4806660;29;20011;-46
2022/08/18 08:03:56;;;;;;;;;;;;;;;;;;4807006;29;19972;-45
2022/08/18 08:06:38;;;;;;;;;;;;;;;;;;4806790;29;19925;-46
2022/08/18 08:09:23;;;;;;;;;;;;;;;;;;4806625;29;20372;-48
2022/08/18 08:11:54;;;;;;;;;;;;;;;;;;4788014;30;19926;-46
2022/08/18 08:14:28;;;;;;;;;;;;;;;;;;4788567;29;19941;-46
2022/08/18 08:17:02;;;;;;;;;;;;;;;;;;4788572;29;19974;-48
2022/08/18 08:19:43;;;;;;;;;;;;;;;;;;4793939;29;20389;-48
2022/08/18 08:22:44;;;;;;;;;;;;;;;;;;4806656;29;20025;-47
2022/08/18 08:25:31;;;;;;;;;;;;;;;;;;4806248;29;19964;-52
2022/08/18 08:28:14;;;;;;;;;;;;;;;;;;4806429;29;19925;-47
2022/08/18 08:30:48;;;;;;;;;;;;;;;;;;4806137;29;19936;-46
2022/08/18 08:33:22;;;;;;;;;;;;;;;;;;4806167;29;20012;-46
2022/08/18 08:36:00;;;;;;;;;;;;;;;;;;4805951;29;19928;-46
2022/08/18 08:38:36;;;;;;;;;;;;;;;;;;4806435;29;19925;-44
2022/08/18 08:41:14;;;;;;;;;;;;;;;;;;4806263;29;20021;-46
2022/08/18 08:43:48;;;;;;;;;;;;;;;;;;4805965;29;20367;-49
2022/08/18 08:46:23;;;;;;;;;;;;;;;;;;4806095;29;20401;-45
2022/08/18 08:49:14;;;;;;;;;;;;;;;;;;4805868;29;19932;-46
2022/08/18 08:51:48;;;;;;;;;;;;;;;;;;4812392;29;19925;-44
2022/08/18 08:54:33;;;;;;;;;;;;;;;;;;4805992;29;19931;-45
2022/08/18 08:57:01;;;;;;;;;;;;;;;;;;4805950;29;19925;-44
2022/08/18 08:59:30;;;;;;;;;;;;;;;;;;4805881;29;19925;-48
2022/08/18 09:02:10;;;;;;;;;;;;;;;;;;4805411;29;20294;-47
2022/08/18 09:05:10;;;;;;;;;;;;;;;;;;4804976;29;19990;-46
2022/08/18 09:07:49;;;;;;;;;;;;;;;;;;4805433;29;19968;-46
2022/08/18 09:10:24;;;;;;;;;;;;;;;;;;4805787;29;19925;-45
2022/08/18 09:12:51;;;;;;;;;;;;;;;;;;4805686;29;19925;-46
2022/08/18 09:15:40;;;;;;;;;;;;;;;;;;4805511;29;20428;-44
2022/08/18 09:18:10;;;;;;;;;;;;;;;;;;4805787;29;19925;-47
2022/08/18 09:20:55;;;;;;;;;;;;;;;;;;4791742;29;20374;-47
2022/08/18 09:23:24;;;;;;;;;;;;;;;;;;4787320;29;20008;-52
2022/08/18 09:25:55;;;;;;;;;;;;;;;;;;4787619;29;20275;-49
2022/08/18 09:28:29;;;;;;;;;;;;;;;;;;4787577;29;19932;-44
2022/08/18 09:31:04;;;;;;;;;;;;;;;;;;4787362;29;19975;-44
2022/08/18 09:33:38;;;;;;;;;;;;;;;;;;4800588;29;19926;-46
2022/08/18 09:36:08;;;;;;;;;;;;;;;;;;4787750;29;19929;-46
2022/08/18 09:41:36;;;;;;;;;;;;;;;;;;4787088;29;19948;-44
2022/08/18 09:44:09;;;;;;;;;;;;;;;;;;4786676;29;20300;-45
2022/08/18 09:46:46;;;;;;;;;;;;;;;;;;4786709;29;19982;-45
2022/08/18 09:49:23;;;;;;;;;;;;;;;;;;4786829;29;19925;-51
2022/08/18 09:51:54;;;;;;;;;;;;;;;;;;4787257;30;19930;-45
2022/08/18 09:54:23;;;;;;;;;;;;;;;;;;4798283;29;19933;-45
2022/08/18 09:56:50;;;;;;;;;;;;;;;;;;4787211;29;19925;-46
2022/08/18 09:59:31;;;;;;;;;;;;;;;;;;4787195;29;19988;-44
2022/08/18 10:02:02;;;;;;;;;;;;;;;;;;4787153;29;20005;-47
2022/08/18 10:04:31;;;;;;;;;;;;;;;;;;4786879;29;19933;-47
2022/08/18 10:07:15;;;;;;;;;;;;;;;;;;4787249;29;20390;-45
2022/08/18 10:09:42;;;;;;;;;;;;;;;;;;4787060;29;20400;-43
2022/08/18 10:12:28;;;;;;;;;;;;;;;;;;4786789;29;20302;-46
2022/08/18 10:15:02;;;;;;;;;;;;;;;;;;4787161;29;19929;-45
2022/08/18 10:17:32;;;;;;;;;;;;;;;;;;4786443;29;20390;-49
2022/08/18 10:20:17;;;;;;;;;;;;;;;;;;4786950;30;19932;-46
2022/08/18 10:22:52;;;;;;;;;;;;;;;;;;4786400;29;20304;-47
2022/08/18 10:25:31;;;;;;;;;;;;;;;;;;4786961;29;19930;-45
2022/08/18 10:28:00;;;;;;;;;;;;;;;;;;4786971;29;19933;-44
2022/08/18 10:30:28;;;;;;;;;;;;;;;;;;4787013;29;19926;-44
2022/08/18 10:32:56;;;;;;;;;;;;;;;;;;4786882;29;19974;-48
2022/08/18 10:35:32;;;;;;;;;;;;;;;;;;4786695;29;19926;-48
2022/08/18 10:38:11;;;;;;;;;;;;;;;;;;4786969;29;20065;-47
2022/08/18 10:40:42;;;;;;;;;;;;;;;;;;4786851;29;19925;-44
2022/08/18 10:43:15;;;;;;;;;;;;;;;;;;4785616;29;19926;-45
2022/08/18 10:46:02;;;;;;;;;;;;;;;;;;4786580;29;19925;-44
2022/08/18 10:48:58;;;;;;;;;;;;;;;;;;4786559;29;20404;-44
2022/08/18 10:51:41;;;;;;;;;;;;;;;;;;4786801;29;19926;-45
2022/08/18 10:54:47;;;;;;;;;;;;;;;;;;4786679;29;20369;-44
2022/08/18 10:57:30;;;;;;;;;;;;;;;;;;4786704;29;19947;-45
2022/08/18 11:00:18;;;;;;;;;;;;;;;;;;4789301;29;20286;-44
2022/08/18 11:02:53;;;;;;;;;;;;;;;;;;4789575;29;19965;-45
2022/08/18 11:05:28;;;;;;;;;;;;;;;;;;4789847;29;19968;-44
2022/08/18 11:08:00;;;;;;;;;;;;;;;;;;4789635;29;19978;-47
2022/08/18 11:10:36;;;;;;;;;;;;;;;;;;4789837;29;19925;-44
2022/08/18 11:13:30;;;;;;;;;;;;;;;;;;4789707;29;20009;-44
2022/08/18 11:16:05;;;;;;;;;;;;;;;;;;4789523;29;19925;-47
2022/08/18 11:18:39;;;;;;;;;;;;;;;;;;4789846;29;20369;-45
2022/08/18 11:21:29;;;;;;;;;;;;;;;;;;4807861;29;19932;-44
2022/08/18 11:24:02;;;;;;;;;;;;;;;;;;4807483;29;19925;-45
2022/08/18 11:26:33;;;;;;;;;;;;;;;;;;4807433;29;19982;-46
2022/08/18 11:29:15;;;;;;;;;;;;;;;;;;4807439;29;19979;-44
2022/08/18 11:31:44;;;;;;;;;;;;;;;;;;4807436;29;19974;-45
2022/08/18 11:34:24;;;;;;;;;;;;;;;;;;4807177;29;19932;-46
2022/08/18 11:36:56;;;;;;;;;;;;;;;;;;4807221;29;19925;-48
2022/08/18 11:39:24;;;;;;;;;;;;;;;;;;4807170;29;19931;-44
2022/08/18 11:42:08;;;;;;;;;;;;;;;;;;4807209;29;20279;-43
2022/08/18 11:44:42;;;;;;;;;;;;;;;;;;4806978;29;20012;-44
2022/08/18 11:47:12;;;;;;;;;;;;;;;;;;4821249;29;19925;-44
2022/08/18 11:49:59;;;;;;;;;;;;;;;;;;4807085;29;19958;-45
2022/08/18 11:52:29;;;;;;;;;;;;;;;;;;4806809;29;19932;-44
2022/08/18 11:55:03;;;;;;;;;;;;;;;;;;4806839;29;19968;-45
2022/08/18 11:57:54;;;;;;;;;;;;;;;;;;4806972;29;20380;-46
2022/08/18 12:00:53;;;;;;;;;;;;;;;;;;4806659;29;19929;-45
2022/08/18 12:03:26;;;;;;;;;;;;;;;;;;4806699;29;19925;-45
2022/08/18 12:05:57;;;;;;;;;;;;;;;;;;4806897;29;19925;-45
2022/08/18 12:08:34;;;;;;;;;;;;;;;;;;4820408;29;20536;-49
2022/08/18 12:11:24;;;;;;;;;;;;;;;;;;4805604;29;19935;-45
2022/08/18 12:14:07;;;;;;;;;;;;;;;;;;4806577;29;20308;-44
2022/08/18 12:16:54;;;;;;;;;;;;;;;;;;4806588;29;19925;-46
2022/08/18 12:19:22;;;;;;;;;;;;;;;;;;4801682;29;20286;-44
2022/08/18 12:21:54;;;;;;;;;;;;;;;;;;4788365;29;19925;-49
2022/08/18 12:24:24;;;;;;;;;;;;;;;;;;4787482;29;20393;-44
2022/08/18 12:26:52;;;;;;;;;;;;;;;;;;4787051;30;19929;-44
2022/08/18 12:29:19;;;;;;;;;;;;;;;;;;4788269;29;20386;-45
2022/08/18 12:31:49;;;;;;;;;;;;;;;;;;4788189;29;20279;-44
2022/08/18 12:34:18;;;;;;;;;;;;;;;;;;4787155;29;19982;-43
2022/08/18 12:36:51;;;;;;;;;;;;;;;;;;4787956;29;19933;-44
2022/08/18 12:39:21;;;;;;;;;;;;;;;;;;4788144;29;20382;-43
2022/08/18 12:41:48;;;;;;;;;;;;;;;;;;4788197;29;20051;-47
2022/08/18 12:44:15;;;;;;;;;;;;;;;;;;4787864;29;19926;-52
2022/08/18 12:46:44;;;;;;;;;;;;;;;;;;4788010;29;19929;-45
2022/08/18 12:49:15;;;;;;;;;;;;;;;;;;4788127;29;20025;-44
2022/08/18 12:51:43;;;;;;;;;;;;;;;;;;4787988;29;19926;-43
2022/08/18 12:54:10;;;;;;;;;;;;;;;;;;4787819;29;20359;-46
2022/08/18 12:56:39;;;;;;;;;;;;;;;;;;4788143;29;19925;-45
2022/08/18 12:59:09;;;;;;;;;;;;;;;;;;4788169;29;19926;-46
2022/08/18 13:01:37;;;;;;;;;;;;;;;;;;4787740;29;20408;-45
2022/08/18 13:04:05;;;;;;;;;;;;;;;;;;4787748;29;19925;-45
2022/08/18 13:06:52;;;;;;;;;;;;;;;;;;4787641;29;19929;-46
2022/08/18 13:09:29;;;;;;;;;;;;;;;;;;4787766;29;19933;-45
2022/08/18 13:12:14;;;;;;;;;;;;;;;;;;4787584;29;19925;-45
2022/08/18 13:14:44;;;;;;;;;;;;;;;;;;4787525;29;19983;-44
2022/08/18 13:17:12;;;;;;;;;;;;;;;;;;4787136;29;19959;-44
2022/08/18 13:19:59;;;;;;;;;;;;;;;;;;4796580;29;20377;-50
2022/08/18 13:22:28;;;;;;;;;;;;;;;;;;4805063;29;19928;-47
2022/08/18 13:24:58;;;;;;;;;;;;;;;;;;4805250;29;19925;-48
2022/08/18 13:27:25;;;;;;;;;;;;;;;;;;4805315;29;19925;-49
2022/08/18 13:29:53;;;;;;;;;;;;;;;;;;4819469;29;19932;-51
2022/08/18 13:32:20;;;;;;;;;;;;;;;;;;4805231;29;19975;-49
2022/08/18 13:34:47;;;;;;;;;;;;;;;;;;4804974;29;19925;-47
2022/08/18 13:37:15;;;;;;;;;;;;;;;;;;4805106;29;19932;-48
2022/08/18 13:39:42;;;;;;;;;;;;;;;;;;4805308;29;20015;-44
2022/08/18 13:42:09;;;;;;;;;;;;;;;;;;4805232;29;19993;-53
2022/08/18 13:44:48;;;;;;;;;;;;;;;;;;4805335;29;20021;-45
2022/08/18 13:47:19;;;;;;;;;;;;;;;;;;4804854;29;19925;-45
2022/08/18 13:49:46;;;;;;;;;;;;;;;;;;4819267;29;20381;-47
2022/08/18 13:52:18;;;;;;;;;;;;;;;;;;4805033;29;19925;-44
2022/08/18 13:54:59;;;;;;;;;;;;;;;;;;4805259;29;20324;-44
2022/08/18 13:57:26;;;;;;;;;;;;;;;;;;4803977;29;19982;-45
2022/08/18 13:59:53;;;;;;;;;;;;;;;;;;4804942;29;19932;-45
2022/08/18 14:02:20;;;;;;;;;;;;;;;;;;4804955;29;20394;-46
2022/08/18 14:04:54;;;;;;;;;;;;;;;;;;4805165;29;19972;-45
2022/08/18 14:07:25;;;;;;;;;;;;;;;;;;4804800;29;20381;-45
2022/08/18 14:09:56;;;;;;;;;;;;;;;;;;4804246;29;19925;-45
2022/08/18 14:12:23;;;;;;;;;;;;;;;;;;4804743;29;19929;-46
2022/08/18 14:14:55;;;;;;;;;;;;;;;;;;4804958;29;19925;-44
2022/08/18 14:17:23;;;;;;;;;;;;;;;;;;4804799;29;19994;-48
2022/08/18 14:28:12;;;;;;;;;;;;;;;;;;4786805;29;19972;-46
2022/08/18 14:30:39;;;;;;;;;;;;;;;;;;4786707;29;19947;-46
2022/08/18 14:33:08;;;;;;;;;;;;;;;;;;4787123;29;20016;-47
2022/08/18 14:35:37;;;;;;;;;;;;;;;;;;4789297;30;19925;-44
2022/08/18 14:38:24;;;;;;;;;;;;;;;;;;4790172;29;20412;-53
2022/08/18 14:40:51;;;;;;;;;;;;;;;;;;4790601;29;19925;-45
2022/08/18 14:43:20;;;;;;;;;;;;;;;;;;4789768;29;20358;-47
2022/08/18 14:45:56;;;;;;;;;;;;;;;;;;4789699;29;19960;-48
2022/08/18 14:48:25;;;;;;;;;;;;;;;;;;4789848;29;19957;-44
2022/08/18 14:50:54;;;;;;;;;;;;;;;;;;4789882;29;19969;-43
2022/08/18 14:53:23;;;;;;;;;;;;;;;;;;4790055;29;19929;-47
2022/08/18 14:55:51;;;;;;;;;;;;;;;;;;4789760;29;19932;-46
2022/08/18 14:58:19;;;;;;;;;;;;;;;;;;4789792;29;19999;-45
2022/08/18 15:00:46;;;;;;;;;;;;;;;;;;4790052;29;19932;-46
2022/08/18 15:03:15;;;;;;;;;;;;;;;;;;4788840;29;19926;-48
2022/08/18 15:05:42;;;;;;;;;;;;;;;;;;4789691;29;19930;-43
2022/08/18 15:08:10;;;;;;;;;;;;;;;;;;4789682;29;20061;-45
2022/08/18 15:10:38;;;;;;;;;;;;;;;;;;4789675;29;19925;-45
2022/08/18 15:13:08;;;;;;;;;;;;;;;;;;4789736;29;19925;-43
2022/08/18 15:15:36;;;;;;;;;;;;;;;;;;4803135;29;19929;-43
2022/08/18 15:18:17;;;;;;;;;;;;;;;;;;4789291;29;20297;-45
2022/08/18 15:26:24;;;;;;;;;;;;;;;;;;4807478;29;20733;-44
2022/08/18 15:28:52;;;;;;;;;;;;;;;;;;4807606;29;19925;-45
2022/08/18 15:31:19;;;;;;;;;;;;;;;;;;4806919;29;20364;-48
2022/08/18 15:34:06;;;;;;;;;;;;;;;;;;4807114;29;19929;-46
2022/08/18 15:36:34;;;;;;;;;;;;;;;;;;4806820;29;19925;-44
2022/08/18 15:39:03;;;;;;;;;;;;;;;;;;4807102;29;19982;-47
2022/08/18 15:41:35;;;;;;;;;;;;;;;;;;4821008;29;19925;-45
2022/08/18 15:44:08;;;;;;;;;;;;;;;;;;4807260;29;19968;-47
2022/08/18 15:46:36;;;;;;;;;;;;;;;;;;4806152;29;20301;-44
2022/08/18 15:49:06;;;;;;;;;;;;;;;;;;4807252;29;19925;-47
2022/08/18 15:51:40;;;;;;;;;;;;;;;;;;4806841;29;19965;-44
2022/08/18 15:54:08;;;;;;;;;;;;;;;;;;4806887;29;20020;-47
2022/08/18 15:56:35;;;;;;;;;;;;;;;;;;4805612;29;20020;-47
2022/08/18 15:59:09;;;;;;;;;;;;;;;;;;4818676;29;19924;-45
2022/08/18 16:01:36;;;;;;;;;;;;;;;;;;4805214;29;19925;-45
2022/08/18 16:04:07;;;;;;;;;;;;;;;;;;4805090;29;19933;-47
2022/08/18 16:06:40;;;;;;;;;;;;;;;;;;4804979;29;20016;-47
2022/08/18 16:09:07;;;;;;;;;;;;;;;;;;4804930;29;19932;-46
2022/08/18 16:11:35;;;;;;;;;;;;;;;;;;4819381;29;19948;-45
2022/08/18 16:14:03;;;;;;;;;;;;;;;;;;4806683;29;19929;-46
2022/08/18 16:16:32;;;;;;;;;;;;;;;;;;4806636;29;20442;-46
2022/08/18 16:19:03;;;;;;;;;;;;;;;;;;4804134;29;19985;-46
2022/08/18 16:21:30;;;;;;;;;;;;;;;;;;4802009;29;19949;-45
2022/08/18 16:23:57;;;;;;;;;;;;;;;;;;4788259;29;19925;-48
2022/08/18 16:26:25;;;;;;;;;;;;;;;;;;4787324;29;19930;-45
2022/08/18 16:28:52;;;;;;;;;;;;;;;;;;4787998;30;19929;-45
2022/08/18 16:31:25;;;;;;;;;;;;;;;;;;4788146;29;19932;-45
2022/08/18 16:33:52;;;;;;;;;;;;;;;;;;4787939;29;20398;-47
2022/08/18 16:36:25;;;;;;;;;;;;;;;;;;4788074;29;19933;-47
2022/08/18 16:38:53;;;;;;;;;;;;;;;;;;4787816;29;20306;-45
2022/08/18 16:41:24;;;;;;;;;;;;;;;;;;4788279;29;19937;-46
2022/08/18 16:43:51;;;;;;;;;;;;;;;;;;4788268;29;19956;-45
2022/08/18 16:46:23;;;;;;;;;;;;;;;;;;4787828;29;20377;-45
2022/08/18 16:48:50;;;;;;;;;;;;;;;;;;4788105;29;19926;-44
2022/08/18 16:51:20;;;;;;;;;;;;;;;;;;4787812;29;19925;-44
2022/08/18 16:53:50;;;;;;;;;;;;;;;;;;4787837;29;19925;-45
2022/08/18 16:56:19;;;;;;;;;;;;;;;;;;4801262;29;20403;-45
2022/08/18 17:04:21;;;;;;;;;;;;;;;;;;4787724;29;19941;-47
2022/08/18 17:06:51;;;;;;;;;;;;;;;;;;4787577;29;19929;-48
2022/08/18 17:09:18;;;;;;;;;;;;;;;;;;4787640;29;19956;-46
2022/08/18 17:11:45;;;;;;;;;;;;;;;;;;4787661;29;19933;-50
2022/08/18 17:14:18;;;;;;;;;;;;;;;;;;4787292;30;19932;-46
2022/08/18 17:16:46;;;;;;;;;;;;;;;;;;4787359;29;20044;-46
2022/08/18 17:19:16;;;;;;;;;;;;;;;;;;4791311;29;19972;-46
2022/08/18 17:21:43;;;;;;;;;;;;;;;;;;4805433;29;20011;-44
2022/08/18 17:24:10;;;;;;;;;;;;;;;;;;4805448;29;19986;-46
2022/08/18 17:26:47;;;;;;;;;;;;;;;;;;4805708;29;19925;-49
2022/08/18 17:29:18;;;;;;;;;;;;;;;;;;4805386;29;20302;-45